Terminal Aerodrome Forecast
Issued by NWS

Home | Current Version | Previous Version | Text Only | Print | Product List | Glossary On
Versions: 1 2 3 4 5 6 7 8 9 10 11 12 13 14 15 16 17 18 19 20 21 22 23
000
FTUS42 KKEY 030058 AAC
TAFMTH
TAF AMD
KMTH 030058Z 0301/0324 08006KT P6SM -RA BKN060 OVC110
      TEMPO 0301/0302 VRB15KT 3SM SHRA BR
     FM030600 08008KT 5SM SHRA BR BKN015
      TEMPO 0309/0313 VRB20KT 3SM TSRA BR BKN015CB
     FM031300 11008KT 4SM SHRA BR BKN025
      TEMPO 0313/0317 VRB20KT 2SM TSRA BR BKN015CB
     FM031700 15008KT 5SM SHRA BR BKN025=

USA.gov is the U.S. government's official web portal to all federal, state and local government web resources and services.